createdAt,value
2022-09-15T00:01:50.870Z,27.20
2022-09-15T00:04:17.254Z,28.55
2022-09-15T00:06:43.557Z,26.98
2022-09-15T00:09:09.891Z,26.60
2022-09-15T00:11:37.430Z,26.55
2022-09-15T00:14:06.075Z,29.75
2022-09-15T00:16:33.006Z,29.05
2022-09-15T00:19:00.686Z,25.05
2022-09-15T00:21:31.834Z,26.30
2022-09-15T00:24:00.007Z,28.85
2022-09-15T00:26:29.027Z,26.92
2022-09-15T00:28:56.890Z,29.13
2022-09-15T00:31:25.311Z,28.15
2022-09-15T00:33:53.609Z,28.92
2022-09-15T00:36:21.349Z,29.77
2022-09-15T00:38:47.871Z,24.13
2022-09-15T00:41:16.783Z,30.50
2022-09-15T00:44:01.336Z,24.40
2022-09-15T00:46:36.927Z,26.48
2022-09-15T00:49:12.077Z,29.95
2022-09-15T00:51:52.267Z,27.50
2022-09-15T00:54:41.515Z,26.70
2022-09-15T00:57:16.668Z,29.52
2022-09-15T00:59:44.385Z,31.13
2022-09-15T01:02:20.884Z,32.17
2022-09-15T01:04:47.868Z,36.47
2022-09-15T01:07:18.183Z,35.50
2022-09-15T01:10:26.009Z,37.17
2022-09-15T01:12:56.501Z,35.67
2022-09-15T01:15:29.373Z,36.40
2022-09-15T01:18:11.707Z,34.10
2022-09-15T01:21:06.238Z,35.83
2022-09-15T01:24:01.659Z,36.97
2022-09-15T01:27:18.434Z,41.45
2022-09-15T01:30:09.402Z,39.33
2022-09-15T01:32:57.235Z,38.90
2022-09-15T01:35:31.602Z,41.30
2022-09-15T01:38:08.298Z,37.60
2022-09-15T01:40:44.856Z,39.60
2022-09-15T01:43:11.323Z,37.15
2022-09-15T01:45:42.128Z,39.95
2022-09-15T01:48:08.937Z,41.28
2022-09-15T01:50:46.354Z,54.90
2022-09-15T01:53:17.655Z,42.92
2022-09-15T01:55:53.345Z,46.58
2022-09-15T01:58:20.305Z,48.42
2022-09-15T02:00:53.446Z,44.92
2022-09-15T02:03:30.946Z,48.00
2022-09-15T02:06:02.228Z,53.88
2022-09-15T02:08:41.023Z,52.13
2022-09-15T02:11:17.533Z,58.33
2022-09-15T02:13:59.420Z,55.45
2022-09-15T02:16:29.835Z,51.92
2022-09-15T02:19:30.554Z,50.42
2022-09-15T02:22:06.114Z,55.40
2022-09-15T02:24:38.391Z,54.45
2022-09-15T02:27:10.122Z,49.13
2022-09-15T02:29:38.516Z,45.22
2022-09-15T02:32:07.632Z,47.45
2022-09-15T02:34:39.397Z,46.10
2022-09-15T02:37:07.355Z,47.75
2022-09-15T02:39:37.491Z,49.13
2022-09-15T02:42:04.141Z,50.03
2022-09-15T02:44:30.881Z,47.38
2022-09-15T02:46:58.656Z,44.42
2022-09-15T02:49:24.986Z,43.33
2022-09-15T02:51:51.296Z,37.58
2022-09-15T02:54:17.619Z,46.35
2022-09-15T02:56:43.914Z,45.83
2022-09-15T02:59:10.270Z,45.92
2022-09-15T03:01:36.584Z,48.85
2022-09-15T03:04:03.669Z,47.90
2022-09-15T03:06:30.268Z,52.35
2022-09-15T03:08:58.329Z,62.33
2022-09-15T03:11:26.867Z,62.47
2022-09-15T03:13:55.206Z,52.63
2022-09-15T03:16:21.796Z,58.83
2022-09-15T03:18:48.175Z,53.88
2022-09-15T03:21:16.446Z,52.78
2022-09-15T03:23:42.876Z,58.10
2022-09-15T03:26:09.623Z,58.45
2022-09-15T03:28:37.194Z,56.20
2022-09-15T03:31:03.953Z,57.72
2022-09-15T03:33:30.475Z,61.58
2022-09-15T03:35:57.181Z,55.13
2022-09-15T03:38:23.690Z,55.50
2022-09-15T03:41:01.286Z,50.75
2022-09-15T03:43:29.569Z,51.38
2022-09-15T03:45:56.309Z,46.63
2022-09-15T03:48:24.327Z,47.13
2022-09-15T03:50:51.538Z,52.25
2022-09-15T03:53:18.263Z,49.13
2022-09-15T03:55:45.568Z,48.42
2022-09-15T03:58:13.132Z,47.33
2022-09-15T04:00:40.404Z,48.40
2022-09-15T04:03:07.608Z,47.80
2022-09-15T04:05:34.839Z,49.30
2022-09-15T04:08:01.288Z,47.97
2022-09-15T04:10:27.635Z,51.35
2022-09-15T04:12:54.011Z,46.58
2022-09-15T04:15:20.856Z,46.22
2022-09-15T04:17:47.792Z,42.80
2022-09-15T04:20:14.786Z,45.15
2022-09-15T04:22:41.126Z,48.53
2022-09-15T04:25:07.981Z,47.38
2022-09-15T04:27:34.269Z,43.00
2022-09-15T04:30:00.562Z,43.28
2022-09-15T04:32:29.152Z,38.38
2022-09-15T04:34:55.780Z,41.60
2022-09-15T04:37:22.689Z,38.42
2022-09-15T04:39:49.612Z,39.53
2022-09-15T04:42:16.038Z,35.75
2022-09-15T04:44:42.382Z,37.78
2022-09-15T04:47:08.706Z,37.60
2022-09-15T04:49:35.009Z,37.90
2022-09-15T04:52:01.481Z,34.42
2022-09-15T04:54:27.783Z,35.05
2022-09-15T04:56:54.086Z,37.63
2022-09-15T04:59:20.379Z,34.60
2022-09-15T05:01:46.801Z,32.83
2022-09-15T05:04:13.165Z,33.72
2022-09-15T05:06:39.467Z,30.88
2022-09-15T05:09:10.236Z,30.70
2022-09-15T05:11:37.733Z,31.38
2022-09-15T05:14:04.080Z,31.85
2022-09-15T05:16:30.848Z,34.22
2022-09-15T05:18:59.843Z,28.65
2022-09-15T05:21:26.903Z,30.27
2022-09-15T05:23:54.083Z,32.72
2022-09-15T05:26:23.775Z,30.63
2022-09-15T05:28:50.109Z,28.85
2022-09-15T05:31:19.577Z,27.75
2022-09-15T05:33:47.545Z,30.02
2022-09-15T05:36:14.755Z,26.02
2022-09-15T05:38:41.421Z,28.42
2022-09-15T05:41:10.951Z,23.95
2022-09-15T05:43:38.294Z,25.98
2022-09-15T05:46:05.731Z,27.90
2022-09-15T05:48:32.376Z,26.02
2022-09-15T05:50:59.158Z,25.33
2022-09-15T05:53:26.055Z,23.98
2022-09-15T05:55:59.938Z,23.20
2022-09-15T05:58:26.792Z,22.48
2022-09-15T06:00:53.624Z,21.00
2022-09-15T06:03:21.311Z,25.00
2022-09-15T06:05:47.648Z,21.80
2022-09-15T06:08:13.981Z,22.90
2022-09-15T06:10:40.479Z,20.70
2022-09-15T06:13:07.120Z,15.88
2022-09-15T06:15:33.643Z,21.98
2022-09-15T06:17:59.959Z,17.50
2022-09-15T06:20:26.393Z,18.23
2022-09-15T06:22:53.124Z,18.55
2022-09-15T06:25:19.427Z,16.83
2022-09-15T06:27:49.315Z,18.75
2022-09-15T06:30:15.603Z,17.35
2022-09-15T06:32:45.157Z,15.88
2022-09-15T06:35:14.351Z,17.00
2022-09-15T06:37:40.652Z,13.85
2022-09-15T06:40:07.690Z,23.80
2022-09-15T06:42:34.049Z,12.25
2022-09-15T06:45:00.356Z,12.32
2022-09-15T06:47:26.669Z,12.75
2022-09-15T06:49:52.968Z,15.55
2022-09-15T06:52:19.344Z,13.88
2022-09-15T06:54:45.656Z,10.95
2022-09-15T06:57:11.946Z,8.70
2022-09-15T06:59:38.234Z,15.93
2022-09-15T07:02:05.435Z,11.68
2022-09-15T07:04:34.137Z,12.02
2022-09-15T07:07:00.436Z,9.90
2022-09-15T07:09:26.768Z,10.27
2022-09-15T07:11:53.084Z,10.95
2022-09-15T07:14:19.390Z,10.77
2022-09-15T07:16:45.695Z,6.82
2022-09-15T07:19:12.128Z,10.32
2022-09-15T07:21:38.414Z,7.90
2022-09-15T07:24:07.279Z,8.20
2022-09-15T07:26:33.933Z,7.28
2022-09-15T07:29:02.583Z,5.47
2022-09-15T07:31:31.709Z,8.88
2022-09-15T07:34:01.683Z,5.88
2022-09-15T07:36:29.315Z,8.57
2022-09-15T07:38:55.687Z,6.03
2022-09-15T07:41:30.290Z,7.57
2022-09-15T07:43:58.321Z,8.63
2022-09-15T07:46:26.611Z,13.50
2022-09-15T07:48:54.483Z,8.50
2022-09-15T07:51:20.768Z,7.30
2022-09-15T07:53:47.952Z,8.32
2022-09-15T07:56:15.235Z,7.63
2022-09-15T07:58:41.541Z,9.45
2022-09-15T08:01:10.476Z,6.93
2022-09-15T08:03:44.797Z,4.75
2022-09-15T08:06:11.171Z,9.27
2022-09-15T08:08:38.713Z,5.97
2022-09-15T08:11:07.394Z,6.35
2022-09-15T08:13:33.756Z,7.22
2022-09-15T08:16:11.764Z,8.98
2022-09-15T08:18:39.373Z,6.82
2022-09-15T08:21:07.257Z,4.30
2022-09-15T08:23:33.751Z,6.90
2022-09-15T08:26:00.070Z,8.70
2022-09-15T08:28:26.460Z,4.05
2022-09-15T08:31:09.298Z,6.05
2022-09-15T08:33:35.734Z,4.20
2022-09-15T08:36:08.649Z,5.47
2022-09-15T08:38:34.926Z,7.13
2022-09-15T08:41:08.172Z,4.93
2022-09-15T08:44:03.955Z,6.15
2022-09-15T08:46:40.794Z,6.25
2022-09-15T08:49:30.546Z,8.00
2022-09-15T08:52:07.842Z,5.53
2022-09-15T08:54:34.184Z,4.47
2022-09-15T08:57:01.378Z,4.80
2022-09-15T08:59:33.776Z,8.82
2022-09-15T09:02:12.243Z,7.43
2022-09-15T09:04:47.551Z,3.95
2022-09-15T09:08:03.439Z,7.88
2022-09-15T09:10:45.716Z,6.93
2022-09-15T09:13:26.940Z,6.85
2022-09-15T09:16:30.076Z,3.28
2022-09-15T09:19:24.075Z,5.60
2022-09-15T09:22:03.911Z,7.57
2022-09-15T09:24:42.905Z,6.65
2022-09-15T09:27:22.923Z,5.22
2022-09-15T09:29:56.080Z,10.05
2022-09-15T09:32:24.905Z,5.00
2022-09-15T09:34:59.176Z,11.45
2022-09-15T09:37:25.544Z,7.03
2022-09-15T09:39:51.902Z,6.53
2022-09-15T09:42:18.936Z,6.47
2022-09-15T09:44:46.786Z,7.57
2022-09-15T09:47:13.132Z,4.40
2022-09-15T09:49:45.980Z,9.35
2022-09-15T09:52:12.318Z,4.00
2022-09-15T09:54:38.654Z,6.88
2022-09-15T09:57:13.880Z,5.13
2022-09-15T09:59:47.478Z,7.10
2022-09-15T10:02:17.183Z,6.35
2022-09-15T10:04:46.197Z,4.63
2022-09-15T10:07:15.437Z,6.70
2022-09-15T10:09:49.814Z,6.22
2022-09-15T10:12:29.140Z,6.40
2022-09-15T10:14:59.193Z,6.80
2022-09-15T10:17:45.965Z,8.32
2022-09-15T10:20:21.512Z,7.28
2022-09-15T10:22:48.003Z,5.72
2022-09-15T10:25:20.157Z,6.15
2022-09-15T10:28:09.271Z,11.95
2022-09-15T10:30:39.377Z,7.25
2022-09-15T10:33:29.282Z,4.68
2022-09-15T10:36:02.247Z,10.27
2022-09-15T10:38:38.881Z,4.03
2022-09-15T10:41:25.647Z,6.72
2022-09-15T10:44:15.578Z,6.65
2022-09-15T10:46:58.409Z,4.88
2022-09-15T10:49:36.779Z,3.17
2022-09-15T10:52:29.986Z,5.65
2022-09-15T10:55:51.062Z,6.30
2022-09-15T10:58:31.999Z,4.53
2022-09-15T11:01:28.212Z,4.05
2022-09-15T11:04:32.043Z,3.90
2022-09-15T11:07:29.100Z,7.43
2022-09-15T11:10:30.661Z,5.60
2022-09-15T11:13:20.955Z,9.18
2022-09-15T11:16:13.473Z,4.57
2022-09-15T11:18:55.125Z,5.30
2022-09-15T11:21:27.229Z,4.50
2022-09-15T11:24:28.954Z,5.85
2022-09-15T11:27:11.255Z,6.13
2022-09-15T11:29:58.284Z,6.82
2022-09-15T11:32:30.726Z,7.43
2022-09-15T11:35:29.577Z,7.55
2022-09-15T11:38:04.035Z,9.35
2022-09-15T11:40:37.514Z,6.75
2022-09-15T11:43:16.295Z,6.30
2022-09-15T11:45:50.113Z,6.15
2022-09-15T11:48:33.402Z,7.07
2022-09-15T11:51:02.587Z,7.97
2022-09-15T11:53:37.781Z,10.00
2022-09-15T11:56:13.044Z,5.00
2022-09-15T11:59:02.358Z,5.63
2022-09-15T12:01:34.446Z,7.80
2022-09-15T12:04:08.437Z,5.72
2022-09-15T12:06:56.119Z,3.80
2022-09-15T12:09:22.779Z,4.15
2022-09-15T12:11:53.457Z,4.63
2022-09-15T12:14:38.751Z,6.32
2022-09-15T12:17:06.856Z,7.82
2022-09-15T12:19:33.085Z,7.68
2022-09-15T12:22:14.300Z,4.57
2022-09-15T12:25:03.842Z,3.65
2022-09-15T12:27:30.745Z,3.72
2022-09-15T12:30:00.905Z,4.35
2022-09-15T12:32:31.678Z,3.72
2022-09-15T12:35:16.086Z,2.72
2022-09-15T12:37:46.404Z,2.90
2022-09-15T12:40:37.427Z,4.53
2022-09-15T12:43:18.521Z,3.55
2022-09-15T12:45:56.403Z,2.85
2022-09-15T12:48:26.867Z,4.80
2022-09-15T12:50:56.743Z,5.03
2022-09-15T12:53:26.445Z,2.50
2022-09-15T12:56:22.134Z,7.75
2022-09-15T12:58:49.521Z,3.72
2022-09-15T13:01:31.058Z,4.63
2022-09-15T13:03:58.283Z,6.55
2022-09-15T13:06:32.929Z,3.55
2022-09-15T13:09:01.929Z,4.90
2022-09-15T13:11:31.340Z,3.38
2022-09-15T13:14:03.706Z,4.55
2022-09-15T13:16:42.268Z,5.32
2022-09-15T13:19:39.749Z,5.10
2022-09-15T13:22:11.934Z,4.20
2022-09-15T13:25:14.329Z,6.65
2022-09-15T13:27:43.763Z,5.72
2022-09-15T13:30:39.270Z,8.68
2022-09-15T13:35:50.490Z,4.97
2022-09-15T13:38:37.902Z,6.07
2022-09-15T13:41:32.297Z,8.70
2022-09-15T13:44:09.687Z,5.38
2022-09-15T13:47:04.891Z,9.57
2022-09-15T13:49:31.146Z,5.32
2022-09-15T13:52:03.009Z,4.60
2022-09-15T13:54:29.367Z,6.30
2022-09-15T13:56:59.995Z,7.15
2022-09-15T13:59:32.255Z,5.93
2022-09-15T14:02:00.267Z,6.07
2022-09-15T14:04:30.703Z,6.43
2022-09-15T14:07:01.259Z,7.80
2022-09-15T14:09:32.603Z,3.35
2022-09-15T14:12:07.555Z,4.95
2022-09-15T14:14:55.137Z,5.63
2022-09-15T14:17:24.286Z,5.40
2022-09-15T14:19:56.012Z,5.13
2022-09-15T14:22:32.854Z,8.85
2022-09-15T14:25:04.178Z,6.90
2022-09-15T14:27:34.973Z,7.82
2022-09-15T14:30:04.067Z,5.95
2022-09-15T14:32:34.099Z,8.32
2022-09-15T14:35:05.870Z,8.13
2022-09-15T14:37:32.693Z,4.20
2022-09-15T14:40:00.695Z,5.28
2022-09-15T14:42:30.059Z,5.90
2022-09-15T14:48:05.803Z,4.95
2022-09-15T14:50:33.444Z,8.63
2022-09-15T14:53:06.882Z,6.68
2022-09-15T14:55:48.052Z,4.57
2022-09-15T14:58:23.466Z,8.55
2022-09-15T15:00:52.967Z,5.15
2022-09-15T15:03:47.971Z,6.68
2022-09-15T15:06:34.853Z,6.65
2022-09-15T15:09:16.132Z,4.45
2022-09-15T15:11:42.698Z,1.60
2022-09-15T15:14:11.388Z,9.88
2022-09-15T15:16:50.379Z,8.25
2022-09-15T15:19:32.961Z,6.38
2022-09-15T15:22:28.794Z,6.15
2022-09-15T15:24:55.423Z,4.30
2022-09-15T15:27:34.625Z,4.10
2022-09-15T15:30:22.954Z,5.65
2022-09-15T15:32:49.404Z,5.80
2022-09-15T15:35:17.713Z,6.30
2022-09-15T15:37:44.124Z,9.73
2022-09-15T15:40:19.869Z,3.17
2022-09-15T15:42:59.262Z,4.35
2022-09-15T15:45:29.344Z,3.63
2022-09-15T15:47:55.895Z,4.25
2022-09-15T15:50:25.165Z,4.47
2022-09-15T15:52:52.309Z,3.83
2022-09-15T15:55:24.368Z,5.22
2022-09-15T15:57:53.302Z,5.45
2022-09-15T16:00:23.995Z,4.13
2022-09-15T16:02:53.752Z,5.55
2022-09-15T16:05:23.561Z,7.13
2022-09-15T16:07:51.608Z,4.40
2022-09-15T16:10:21.197Z,6.07
2022-09-15T16:12:47.643Z,2.90
2022-09-15T16:15:17.444Z,9.25
2022-09-15T16:17:46.862Z,5.28
2022-09-15T16:20:14.094Z,2.67
2022-09-15T16:22:40.379Z,8.80
2022-09-15T16:25:29.656Z,5.68
2022-09-15T16:27:55.942Z,7.13
2022-09-15T16:30:22.230Z,3.35
2022-09-15T16:32:48.500Z,6.57
2022-09-15T16:35:26.341Z,3.17
2022-09-15T16:37:52.623Z,6.22
2022-09-15T16:40:19.011Z,8.55
2022-09-15T16:42:47.367Z,3.40
2022-09-15T16:45:40.946Z,3.03
2022-09-15T16:48:08.497Z,2.08
2022-09-15T16:50:35.509Z,7.07
2022-09-15T16:53:01.980Z,1.60
2022-09-15T16:55:45.225Z,3.60
2022-09-15T16:58:12.932Z,4.13
2022-09-15T17:00:39.732Z,4.25
2022-09-15T17:03:07.539Z,3.17
2022-09-15T17:05:33.773Z,3.55
2022-09-15T17:08:00.102Z,3.45
2022-09-15T17:10:26.457Z,4.47
2022-09-15T17:12:53.320Z,3.28
2022-09-15T17:15:21.740Z,6.05
2022-09-15T17:17:48.496Z,5.07
2022-09-15T17:20:15.344Z,2.95
2022-09-15T17:22:41.814Z,3.47
2022-09-15T17:25:35.540Z,3.45
2022-09-15T17:28:01.961Z,3.53
2022-09-15T17:30:31.124Z,4.20
2022-09-15T17:33:14.376Z,7.75
2022-09-15T17:35:40.956Z,8.65
2022-09-15T17:38:07.617Z,5.05
2022-09-15T17:40:35.639Z,5.22
2022-09-15T17:43:02.758Z,10.20
2022-09-15T17:45:36.231Z,3.90
2022-09-15T17:48:03.983Z,2.85
2022-09-15T17:50:32.585Z,3.33
2022-09-15T17:52:59.175Z,3.50
2022-09-15T17:55:31.075Z,4.93
2022-09-15T17:57:59.562Z,2.33
2022-09-15T18:00:33.091Z,4.60
2022-09-15T18:03:02.355Z,4.32
2022-09-15T18:05:31.570Z,4.68
2022-09-15T18:07:59.962Z,3.15
2022-09-15T18:10:26.939Z,2.72
2022-09-15T18:12:55.643Z,4.68
2022-09-15T18:15:25.858Z,2.50
2022-09-15T18:17:54.644Z,2.72
2022-09-15T18:20:24.175Z,3.28
2022-09-15T18:22:51.116Z,2.72
2022-09-15T18:25:23.151Z,3.70
2022-09-15T18:27:49.565Z,3.13
2022-09-15T18:30:16.631Z,3.55
2022-09-15T18:32:43.567Z,2.42
2022-09-15T18:35:13.272Z,2.20
2022-09-15T18:37:43.922Z,1.73
2022-09-15T18:40:12.734Z,2.20
2022-09-15T18:42:39.978Z,3.53
2022-09-15T18:45:09.043Z,3.58
2022-09-15T18:47:35.939Z,1.90
2022-09-15T18:50:03.469Z,1.60
2022-09-15T18:52:29.751Z,5.78
2022-09-15T18:54:56.037Z,2.72
2022-09-15T18:57:22.736Z,2.97
2022-09-15T18:59:49.475Z,2.58
2022-09-15T19:02:15.947Z,2.63
2022-09-15T19:04:42.819Z,3.45
2022-09-15T19:07:10.260Z,2.50
2022-09-15T19:09:36.593Z,1.15
2022-09-15T19:12:04.403Z,3.20
2022-09-15T19:14:31.394Z,2.38
2022-09-15T19:16:58.599Z,2.17
2022-09-15T19:19:25.149Z,1.80
2022-09-15T19:21:51.520Z,4.95
2022-09-15T19:24:17.903Z,1.85
2022-09-15T19:26:44.772Z,3.10
2022-09-15T19:29:11.063Z,3.85
2022-09-15T19:31:41.707Z,5.72
2022-09-15T19:34:08.380Z,5.93
2022-09-15T19:36:34.771Z,4.25
2022-09-15T19:39:01.054Z,1.63
2022-09-15T19:41:27.354Z,2.50
2022-09-15T19:43:53.822Z,2.58
2022-09-15T19:46:23.087Z,4.18
2022-09-15T19:48:51.066Z,3.85
2022-09-15T19:51:18.280Z,4.38
2022-09-15T19:53:45.335Z,2.38
2022-09-15T19:56:16.955Z,4.72
2022-09-15T19:58:44.355Z,4.10
2022-09-15T20:01:11.013Z,2.63
2022-09-15T20:03:37.411Z,2.72
2022-09-15T20:06:08.354Z,3.05
2022-09-15T20:08:36.485Z,3.40
2022-09-15T20:11:07.685Z,5.32
2022-09-15T20:13:34.624Z,4.18
2022-09-15T20:16:02.539Z,5.07
2022-09-15T20:18:29.864Z,5.95
2022-09-15T20:20:56.598Z,5.72
2022-09-15T20:23:22.920Z,3.33
2022-09-15T20:26:00.837Z,2.67
2022-09-15T20:28:27.654Z,3.40
2022-09-15T20:31:06.271Z,5.63
2022-09-15T20:33:34.888Z,4.30
2022-09-15T20:36:09.775Z,4.63
2022-09-15T20:41:04.103Z,7.75
2022-09-15T20:43:30.532Z,4.47
2022-09-15T20:45:58.539Z,4.65
2022-09-15T20:48:26.146Z,2.35
2022-09-15T20:51:00.194Z,2.47
2022-09-15T20:53:26.538Z,4.57
2022-09-15T20:55:52.836Z,3.55
2022-09-15T20:58:19.355Z,5.57
2022-09-15T21:00:45.655Z,3.63
2022-09-15T21:03:11.962Z,4.28
2022-09-15T21:05:38.261Z,3.83
2022-09-15T21:08:04.597Z,4.22
2022-09-15T21:10:30.915Z,4.28
2022-09-15T21:12:57.200Z,3.05
2022-09-15T21:15:23.541Z,5.85
2022-09-15T21:17:49.844Z,4.35
2022-09-15T21:20:16.262Z,7.05
2022-09-15T21:22:42.573Z,3.17
2022-09-15T21:25:08.994Z,5.13
2022-09-15T21:27:35.296Z,3.38
2022-09-15T21:30:01.588Z,4.22
2022-09-15T21:32:27.900Z,4.47
2022-09-15T21:34:54.203Z,4.10
2022-09-15T21:37:20.519Z,4.80
2022-09-15T21:39:46.853Z,4.72
2022-09-15T21:42:13.219Z,2.65
2022-09-15T21:44:39.512Z,8.30
2022-09-15T21:47:05.827Z,2.95
2022-09-15T21:49:32.158Z,2.30
2022-09-15T21:51:58.434Z,5.57
2022-09-15T21:54:24.770Z,5.55
2022-09-15T21:56:51.075Z,3.38
2022-09-15T21:59:17.387Z,4.55
2022-09-15T22:01:43.710Z,3.72
2022-09-15T22:04:10.075Z,5.35
2022-09-15T22:06:38.879Z,4.85
2022-09-15T22:09:08.338Z,2.47
2022-09-15T22:11:35.471Z,4.40
2022-09-15T22:14:04.014Z,5.85
2022-09-15T22:16:30.441Z,5.10
2022-09-15T22:18:56.774Z,4.28
2022-09-15T22:21:28.638Z,5.38
2022-09-15T22:23:57.282Z,3.53
2022-09-15T22:26:26.746Z,5.30
2022-09-15T22:28:53.817Z,4.13
2022-09-15T22:31:21.838Z,3.50
2022-09-15T22:33:48.483Z,4.97
2022-09-15T22:36:22.219Z,6.40
2022-09-15T22:38:51.971Z,6.13
2022-09-15T22:41:20.192Z,5.43
2022-09-15T22:43:48.866Z,3.83
2022-09-15T22:46:17.322Z,4.68
2022-09-15T22:48:43.770Z,8.25
2022-09-15T22:51:10.719Z,5.43
2022-09-15T22:53:37.013Z,6.30
2022-09-15T22:56:14.968Z,6.55
2022-09-15T22:58:43.522Z,9.88
2022-09-15T23:01:13.164Z,7.47
2022-09-15T23:03:39.845Z,4.38
2022-09-15T23:06:07.316Z,10.48
2022-09-15T23:08:34.841Z,6.25
2022-09-15T23:11:03.327Z,4.63
2022-09-15T23:13:29.680Z,4.55
2022-09-15T23:15:56.013Z,7.47
2022-09-15T23:18:22.349Z,6.75
2022-09-15T23:20:54.779Z,5.53
2022-09-15T23:23:21.097Z,7.47
2022-09-15T23:25:47.382Z,7.05
2022-09-15T23:28:13.673Z,6.57
2022-09-15T23:30:39.971Z,5.00
2022-09-15T23:33:06.284Z,5.45
2022-09-15T23:35:32.599Z,4.93
2022-09-15T23:37:59.325Z,4.50
2022-09-15T23:40:25.659Z,5.53
2022-09-15T23:42:51.965Z,7.55
2022-09-15T23:45:18.324Z,2.67
2022-09-15T23:47:44.617Z,5.03
2022-09-15T23:50:10.898Z,5.13
2022-09-15T23:52:37.225Z,7.35
2022-09-15T23:55:04.015Z,5.35
2022-09-15T23:57:30.315Z,9.88
2022-09-15T23:59:56.619Z,7.57
